Zamora, California
Current Conditions -  °F | °C
As of 7:53 PM on Wednesday 17 Dec 2014 (Local Time) from KSMF Reporting Station
Light Rain Light Rain  
Wind Chill: 51°   Ceiling: 4400
Heat Index: 51°   Visibility: 9mi
Dew Point: 48°   Wind: 7mph
Humidity: 89%   Direction: 190°S
Pressure: 30.09"   Gusts: NA
Location:  38.8°N, 121.88°W
Report Text: KSMF 180353Z 19006KT 9SM -RA SCT022 BKN044 OVC050 11/09 A3009 RMK AO2 SLP187 P0004 T01060089 $
Loading
Personal Weather Stations






























Interactive Weather Map New forecast layout! Learn more

10-Day Weather Forecast

Advertisements
Track Severe Weather on mobile